sensor_id;sensor_type;location;lat;lon;timestamp;P1;durP1;ratioP1;P2;durP2;ratioP2
75535;SDS011;64119;52.070;20.804;2023-12-20T00:00:37;11.30;;;6.00;;
75535;SDS011;64119;52.070;20.804;2023-12-20T00:03:25;9.70;;;5.60;;
75535;SDS011;64119;52.070;20.804;2023-12-20T00:05:53;11.30;;;5.70;;
75535;SDS011;64119;52.070;20.804;2023-12-20T00:08:21;6.60;;;4.30;;
75535;SDS011;64119;52.070;20.804;2023-12-20T00:10:49;7.80;;;4.90;;
75535;SDS011;64119;52.070;20.804;2023-12-20T00:13:17;7.90;;;4.80;;
75535;SDS011;64119;52.070;20.804;2023-12-20T00:15:44;9.70;;;5.70;;
75535;SDS011;64119;52.070;20.804;2023-12-20T00:18:12;8.80;;;5.50;;
75535;SDS011;64119;52.070;20.804;2023-12-20T00:20:40;8.40;;;5.30;;
75535;SDS011;64119;52.070;20.804;2023-12-20T00:23:07;10.30;;;5.90;;
75535;SDS011;64119;52.070;20.804;2023-12-20T00:25:35;8.00;;;5.70;;
75535;SDS011;64119;52.070;20.804;2023-12-20T00:28:03;7.90;;;4.80;;
75535;SDS011;64119;52.070;20.804;2023-12-20T00:30:31;9.20;;;5.40;;
75535;SDS011;64119;52.070;20.804;2023-12-20T00:32:59;8.00;;;5.00;;
75535;SDS011;64119;52.070;20.804;2023-12-20T00:35:27;7.30;;;4.90;;
75535;SDS011;64119;52.070;20.804;2023-12-20T00:37:54;8.60;;;5.00;;
75535;SDS011;64119;52.070;20.804;2023-12-20T00:40:22;8.70;;;5.30;;
75535;SDS011;64119;52.070;20.804;2023-12-20T00:42:50;9.30;;;5.50;;
75535;SDS011;64119;52.070;20.804;2023-12-20T00:45:18;8.60;;;5.10;;
75535;SDS011;64119;52.070;20.804;2023-12-20T00:47:46;9.90;;;5.60;;
75535;SDS011;64119;52.070;20.804;2023-12-20T00:50:14;10.70;;;5.50;;
75535;SDS011;64119;52.070;20.804;2023-12-20T00:52:42;10.50;;;5.10;;
75535;SDS011;64119;52.070;20.804;2023-12-20T00:55:10;7.90;;;5.10;;
75535;SDS011;64119;52.070;20.804;2023-12-20T00:57:37;9.40;;;5.20;;
75535;SDS011;64119;52.070;20.804;2023-12-20T01:00:05;7.30;;;4.90;;
75535;SDS011;64119;52.070;20.804;2023-12-20T01:02:33;7.90;;;4.90;;
75535;SDS011;64119;52.070;20.804;2023-12-20T01:05:01;7.80;;;5.10;;
75535;SDS011;64119;52.070;20.804;2023-12-20T01:07:30;8.90;;;5.30;;
75535;SDS011;64119;52.070;20.804;2023-12-20T01:09:58;7.00;;;4.60;;
75535;SDS011;64119;52.070;20.804;2023-12-20T01:12:25;8.40;;;5.50;;
75535;SDS011;64119;52.070;20.804;2023-12-20T01:14:53;7.10;;;4.10;;
75535;SDS011;64119;52.070;20.804;2023-12-20T01:17:21;11.40;;;5.50;;
75535;SDS011;64119;52.070;20.804;2023-12-20T01:19:48;7.90;;;4.70;;
75535;SDS011;64119;52.070;20.804;2023-12-20T01:22:16;9.20;;;5.50;;
75535;SDS011;64119;52.070;20.804;2023-12-20T01:24:44;8.20;;;4.80;;
75535;SDS011;64119;52.070;20.804;2023-12-20T01:27:12;10.20;;;5.00;;
75535;SDS011;64119;52.070;20.804;2023-12-20T01:29:39;8.00;;;5.30;;
75535;SDS011;64119;52.070;20.804;2023-12-20T01:32:07;7.70;;;4.20;;
75535;SDS011;64119;52.070;20.804;2023-12-20T01:34:35;7.40;;;4.40;;
75535;SDS011;64119;52.070;20.804;2023-12-20T01:37:03;10.20;;;4.90;;
75535;SDS011;64119;52.070;20.804;2023-12-20T01:39:31;8.60;;;4.80;;
75535;SDS011;64119;52.070;20.804;2023-12-20T01:41:59;7.50;;;4.70;;
75535;SDS011;64119;52.070;20.804;2023-12-20T01:44:27;6.90;;;4.50;;
75535;SDS011;64119;52.070;20.804;2023-12-20T01:46:55;7.90;;;4.30;;
75535;SDS011;64119;52.070;20.804;2023-12-20T01:49:23;6.00;;;3.70;;
75535;SDS011;64119;52.070;20.804;2023-12-20T01:51:52;7.60;;;3.90;;
75535;SDS011;64119;52.070;20.804;2023-12-20T01:54:20;7.80;;;3.90;;
75535;SDS011;64119;52.070;20.804;2023-12-20T01:56:48;8.70;;;4.50;;
75535;SDS011;64119;52.070;20.804;2023-12-20T01:59:17;7.40;;;3.60;;
75535;SDS011;64119;52.070;20.804;2023-12-20T02:01:47;6.60;;;3.50;;
75535;SDS011;64119;52.070;20.804;2023-12-20T02:04:15;5.00;;;3.40;;
75535;SDS011;64119;52.070;20.804;2023-12-20T02:06:43;5.20;;;3.50;;
75535;SDS011;64119;52.070;20.804;2023-12-20T02:09:14;5.20;;;3.30;;
75535;SDS011;64119;52.070;20.804;2023-12-20T02:11:43;5.40;;;3.40;;
75535;SDS011;64119;52.070;20.804;2023-12-20T02:14:10;6.30;;;3.60;;
75535;SDS011;64119;52.070;20.804;2023-12-20T02:16:38;6.10;;;3.90;;
75535;SDS011;64119;52.070;20.804;2023-12-20T02:19:08;6.60;;;3.40;;
75535;SDS011;64119;52.070;20.804;2023-12-20T02:21:41;5.80;;;3.50;;
75535;SDS011;64119;52.070;20.804;2023-12-20T02:24:08;5.80;;;3.60;;
75535;SDS011;64119;52.070;20.804;2023-12-20T02:26:36;6.90;;;3.80;;
75535;SDS011;64119;52.070;20.804;2023-12-20T02:29:04;7.40;;;3.90;;
75535;SDS011;64119;52.070;20.804;2023-12-20T02:31:32;5.70;;;3.10;;
75535;SDS011;64119;52.070;20.804;2023-12-20T02:34:00;6.20;;;3.90;;
75535;SDS011;64119;52.070;20.804;2023-12-20T02:36:28;5.60;;;3.40;;
75535;SDS011;64119;52.070;20.804;2023-12-20T02:38:56;5.60;;;3.20;;
75535;SDS011;64119;52.070;20.804;2023-12-20T02:41:23;7.50;;;3.50;;
75535;SDS011;64119;52.070;20.804;2023-12-20T02:43:51;5.00;;;3.00;;
75535;SDS011;64119;52.070;20.804;2023-12-20T02:46:19;4.50;;;3.00;;
75535;SDS011;64119;52.070;20.804;2023-12-20T02:48:46;5.80;;;2.80;;
75535;SDS011;64119;52.070;20.804;2023-12-20T02:51:15;5.30;;;3.50;;
75535;SDS011;64119;52.070;20.804;2023-12-20T02:53:42;6.90;;;3.80;;
75535;SDS011;64119;52.070;20.804;2023-12-20T02:56:10;6.40;;;4.10;;
75535;SDS011;64119;52.070;20.804;2023-12-20T02:58:38;5.20;;;3.00;;
75535;SDS011;64119;52.070;20.804;2023-12-20T03:01:06;4.70;;;2.80;;
75535;SDS011;64119;52.070;20.804;2023-12-20T03:03:34;4.60;;;2.90;;
75535;SDS011;64119;52.070;20.804;2023-12-20T03:06:01;4.50;;;2.80;;
75535;SDS011;64119;52.070;20.804;2023-12-20T03:08:29;5.40;;;3.00;;
75535;SDS011;64119;52.070;20.804;2023-12-20T03:10:59;5.90;;;3.30;;
75535;SDS011;64119;52.070;20.804;2023-12-20T03:13:27;4.70;;;2.90;;
75535;SDS011;64119;52.070;20.804;2023-12-20T03:15:55;4.30;;;2.60;;
75535;SDS011;64119;52.070;20.804;2023-12-20T03:18:22;4.90;;;3.30;;
75535;SDS011;64119;52.070;20.804;2023-12-20T03:20:50;4.50;;;2.90;;
75535;SDS011;64119;52.070;20.804;2023-12-20T03:23:19;5.50;;;2.70;;
75535;SDS011;64119;52.070;20.804;2023-12-20T03:25:46;5.90;;;3.10;;
75535;SDS011;64119;52.070;20.804;2023-12-20T03:28:14;4.70;;;3.20;;
75535;SDS011;64119;52.070;20.804;2023-12-20T03:30:43;6.70;;;3.40;;
75535;SDS011;64119;52.070;20.804;2023-12-20T03:33:11;5.10;;;3.60;;
75535;SDS011;64119;52.070;20.804;2023-12-20T03:35:39;5.50;;;3.00;;
75535;SDS011;64119;52.070;20.804;2023-12-20T03:38:07;5.60;;;3.40;;
75535;SDS011;64119;52.070;20.804;2023-12-20T03:40:34;5.80;;;3.20;;
75535;SDS011;64119;52.070;20.804;2023-12-20T03:43:02;6.10;;;3.40;;
75535;SDS011;64119;52.070;20.804;2023-12-20T03:45:30;4.40;;;2.90;;
75535;SDS011;64119;52.070;20.804;2023-12-20T03:47:58;6.70;;;3.70;;
75535;SDS011;64119;52.070;20.804;2023-12-20T03:50:26;5.70;;;3.20;;
75535;SDS011;64119;52.070;20.804;2023-12-20T03:52:54;6.30;;;3.60;;
75535;SDS011;64119;52.070;20.804;2023-12-20T03:55:22;6.30;;;3.70;;
75535;SDS011;64119;52.070;20.804;2023-12-20T03:57:52;5.70;;;3.70;;
75535;SDS011;64119;52.070;20.804;2023-12-20T04:00:20;5.50;;;3.80;;
75535;SDS011;64119;52.070;20.804;2023-12-20T04:02:48;6.20;;;3.10;;
75535;SDS011;64119;52.070;20.804;2023-12-20T04:05:15;5.00;;;3.30;;
75535;SDS011;64119;52.070;20.804;2023-12-20T04:07:43;5.30;;;3.40;;
75535;SDS011;64119;52.070;20.804;2023-12-20T04:10:12;5.90;;;2.90;;
75535;SDS011;64119;52.070;20.804;2023-12-20T04:12:40;3.40;;;2.40;;
75535;SDS011;64119;52.070;20.804;2023-12-20T04:15:08;4.70;;;2.70;;
75535;SDS011;64119;52.070;20.804;2023-12-20T04:17:37;4.80;;;2.90;;
75535;SDS011;64119;52.070;20.804;2023-12-20T04:20:05;4.30;;;2.50;;
75535;SDS011;64119;52.070;20.804;2023-12-20T04:22:34;5.50;;;2.70;;
75535;SDS011;64119;52.070;20.804;2023-12-20T04:25:02;4.10;;;2.60;;
75535;SDS011;64119;52.070;20.804;2023-12-20T04:27:29;5.80;;;3.20;;
75535;SDS011;64119;52.070;20.804;2023-12-20T04:29:57;4.00;;;2.60;;
75535;SDS011;64119;52.070;20.804;2023-12-20T04:32:25;4.20;;;2.80;;
75535;SDS011;64119;52.070;20.804;2023-12-20T04:34:52;4.60;;;3.40;;
75535;SDS011;64119;52.070;20.804;2023-12-20T04:37:20;5.00;;;3.20;;
75535;SDS011;64119;52.070;20.804;2023-12-20T04:39:48;5.90;;;3.80;;
75535;SDS011;64119;52.070;20.804;2023-12-20T04:42:16;5.80;;;3.30;;
75535;SDS011;64119;52.070;20.804;2023-12-20T04:44:44;5.80;;;3.40;;
75535;SDS011;64119;52.070;20.804;2023-12-20T04:47:12;7.00;;;3.50;;
75535;SDS011;64119;52.070;20.804;2023-12-20T04:49:39;6.10;;;3.90;;
75535;SDS011;64119;52.070;20.804;2023-12-20T04:52:07;6.00;;;3.50;;
75535;SDS011;64119;52.070;20.804;2023-12-20T04:54:35;7.10;;;4.20;;
75535;SDS011;64119;52.070;20.804;2023-12-20T04:57:03;5.20;;;3.10;;
75535;SDS011;64119;52.070;20.804;2023-12-20T04:59:31;5.20;;;3.30;;
75535;SDS011;64119;52.070;20.804;2023-12-20T05:01:59;6.10;;;3.50;;
75535;SDS011;64119;52.070;20.804;2023-12-20T05:04:26;6.50;;;3.70;;
75535;SDS011;64119;52.070;20.804;2023-12-20T05:06:55;5.10;;;3.20;;
75535;SDS011;64119;52.070;20.804;2023-12-20T05:09:22;6.90;;;3.10;;
75535;SDS011;64119;52.070;20.804;2023-12-20T05:11:50;5.20;;;3.20;;
75535;SDS011;64119;52.070;20.804;2023-12-20T05:14:18;5.50;;;3.60;;
75535;SDS011;64119;52.070;20.804;2023-12-20T05:16:46;5.20;;;3.40;;
75535;SDS011;64119;52.070;20.804;2023-12-20T05:19:13;10.10;;;6.30;;
75535;SDS011;64119;52.070;20.804;2023-12-20T05:21:41;6.30;;;3.60;;
75535;SDS011;64119;52.070;20.804;2023-12-20T05:24:09;6.00;;;3.60;;
75535;SDS011;64119;52.070;20.804;2023-12-20T05:26:37;5.70;;;3.30;;
75535;SDS011;64119;52.070;20.804;2023-12-20T05:29:04;4.60;;;3.10;;
75535;SDS011;64119;52.070;20.804;2023-12-20T05:31:32;5.40;;;3.20;;
75535;SDS011;64119;52.070;20.804;2023-12-20T05:34:00;5.30;;;3.20;;
75535;SDS011;64119;52.070;20.804;2023-12-20T05:36:28;4.80;;;3.40;;
75535;SDS011;64119;52.070;20.804;2023-12-20T05:38:55;5.50;;;3.20;;
75535;SDS011;64119;52.070;20.804;2023-12-20T05:41:23;5.10;;;3.20;;
75535;SDS011;64119;52.070;20.804;2023-12-20T05:43:51;4.80;;;3.30;;
75535;SDS011;64119;52.070;20.804;2023-12-20T05:46:19;6.10;;;3.60;;
75535;SDS011;64119;52.070;20.804;2023-12-20T05:48:47;5.70;;;3.20;;
75535;SDS011;64119;52.070;20.804;2023-12-20T05:51:15;5.90;;;3.30;;
75535;SDS011;64119;52.070;20.804;2023-12-20T05:53:43;6.10;;;3.30;;
75535;SDS011;64119;52.070;20.804;2023-12-20T05:56:11;6.60;;;3.30;;
75535;SDS011;64119;52.070;20.804;2023-12-20T05:58:39;5.00;;;2.90;;
75535;SDS011;64119;52.070;20.804;2023-12-20T06:01:07;6.80;;;3.50;;
75535;SDS011;64119;52.070;20.804;2023-12-20T06:03:36;6.00;;;3.40;;
75535;SDS011;64119;52.070;20.804;2023-12-20T06:06:05;6.20;;;3.40;;
75535;SDS011;64119;52.070;20.804;2023-12-20T06:08:43;5.70;;;3.70;;
75535;SDS011;64119;52.070;20.804;2023-12-20T06:11:11;5.70;;;3.70;;
75535;SDS011;64119;52.070;20.804;2023-12-20T06:13:40;5.40;;;3.10;;
75535;SDS011;64119;52.070;20.804;2023-12-20T06:16:08;5.30;;;3.70;;
75535;SDS011;64119;52.070;20.804;2023-12-20T06:18:35;6.50;;;3.60;;
75535;SDS011;64119;52.070;20.804;2023-12-20T06:21:05;5.70;;;3.20;;
75535;SDS011;64119;52.070;20.804;2023-12-20T06:23:34;5.70;;;4.00;;
75535;SDS011;64119;52.070;20.804;2023-12-20T06:26:02;6.40;;;3.30;;
75535;SDS011;64119;52.070;20.804;2023-12-20T06:28:30;6.00;;;3.20;;
75535;SDS011;64119;52.070;20.804;2023-12-20T06:30:58;7.70;;;4.00;;
75535;SDS011;64119;52.070;20.804;2023-12-20T06:33:28;7.60;;;4.10;;
75535;SDS011;64119;52.070;20.804;2023-12-20T06:35:58;7.00;;;4.10;;
75535;SDS011;64119;52.070;20.804;2023-12-20T06:38:26;6.60;;;3.70;;
75535;SDS011;64119;52.070;20.804;2023-12-20T06:40:54;7.20;;;3.90;;
75535;SDS011;64119;52.070;20.804;2023-12-20T06:43:21;6.10;;;3.60;;
75535;SDS011;64119;52.070;20.804;2023-12-20T06:51:06;4.90;;;2.90;;
75535;SDS011;64119;52.070;20.804;2023-12-20T06:53:34;6.40;;;3.80;;
75535;SDS011;64119;52.070;20.804;2023-12-20T06:56:01;7.30;;;3.90;;
75535;SDS011;64119;52.070;20.804;2023-12-20T06:58:30;5.70;;;3.70;;
75535;SDS011;64119;52.070;20.804;2023-12-20T07:00:57;6.10;;;3.80;;
75535;SDS011;64119;52.070;20.804;2023-12-20T07:03:25;8.90;;;4.10;;
75535;SDS011;64119;52.070;20.804;2023-12-20T07:05:53;6.90;;;3.80;;
75535;SDS011;64119;52.070;20.804;2023-12-20T07:08:21;6.40;;;4.20;;
75535;SDS011;64119;52.070;20.804;2023-12-20T07:10:49;5.80;;;3.80;;
75535;SDS011;64119;52.070;20.804;2023-12-20T07:13:17;7.00;;;3.90;;
75535;SDS011;64119;52.070;20.804;2023-12-20T07:15:44;6.80;;;3.70;;
75535;SDS011;64119;52.070;20.804;2023-12-20T07:18:12;8.40;;;4.10;;
75535;SDS011;64119;52.070;20.804;2023-12-20T07:20:40;6.90;;;4.30;;
75535;SDS011;64119;52.070;20.804;2023-12-20T07:23:08;6.00;;;3.70;;
75535;SDS011;64119;52.070;20.804;2023-12-20T07:25:36;7.20;;;3.90;;
75535;SDS011;64119;52.070;20.804;2023-12-20T07:28:04;7.10;;;4.30;;
75535;SDS011;64119;52.070;20.804;2023-12-20T07:30:32;6.20;;;3.90;;
75535;SDS011;64119;52.070;20.804;2023-12-20T07:33:00;7.90;;;4.40;;
75535;SDS011;64119;52.070;20.804;2023-12-20T07:35:28;6.20;;;3.90;;
75535;SDS011;64119;52.070;20.804;2023-12-20T07:37:57;8.40;;;4.30;;
75535;SDS011;64119;52.070;20.804;2023-12-20T07:40:24;9.30;;;4.30;;
75535;SDS011;64119;52.070;20.804;2023-12-20T07:42:52;6.70;;;4.10;;
75535;SDS011;64119;52.070;20.804;2023-12-20T07:45:20;7.60;;;4.10;;
75535;SDS011;64119;52.070;20.804;2023-12-20T07:47:49;8.50;;;5.00;;
75535;SDS011;64119;52.070;20.804;2023-12-20T07:50:17;9.70;;;5.70;;
75535;SDS011;64119;52.070;20.804;2023-12-20T07:52:45;7.50;;;4.60;;
75535;SDS011;64119;52.070;20.804;2023-12-20T07:55:13;7.50;;;4.30;;
75535;SDS011;64119;52.070;20.804;2023-12-20T07:57:41;9.30;;;4.80;;
75535;SDS011;64119;52.070;20.804;2023-12-20T08:00:09;7.00;;;4.40;;
75535;SDS011;64119;52.070;20.804;2023-12-20T08:02:37;9.10;;;4.70;;
75535;SDS011;64119;52.070;20.804;2023-12-20T08:05:05;7.50;;;4.30;;
75535;SDS011;64119;52.070;20.804;2023-12-20T08:07:33;7.20;;;4.60;;
75535;SDS011;64119;52.070;20.804;2023-12-20T08:10:01;9.80;;;5.10;;
75535;SDS011;64119;52.070;20.804;2023-12-20T08:12:29;8.00;;;4.70;;
75535;SDS011;64119;52.070;20.804;2023-12-20T08:14:57;8.20;;;4.70;;
75535;SDS011;64119;52.070;20.804;2023-12-20T08:17:25;9.30;;;4.70;;
75535;SDS011;64119;52.070;20.804;2023-12-20T08:19:53;6.50;;;4.00;;
75535;SDS011;64119;52.070;20.804;2023-12-20T08:22:21;8.60;;;4.40;;
75535;SDS011;64119;52.070;20.804;2023-12-20T08:24:49;7.70;;;3.60;;
75535;SDS011;64119;52.070;20.804;2023-12-20T08:27:16;9.00;;;4.30;;
75535;SDS011;64119;52.070;20.804;2023-12-20T08:29:44;8.00;;;4.50;;
75535;SDS011;64119;52.070;20.804;2023-12-20T08:32:13;7.70;;;4.10;;
75535;SDS011;64119;52.070;20.804;2023-12-20T08:34:40;8.70;;;4.40;;
75535;SDS011;64119;52.070;20.804;2023-12-20T08:37:08;7.60;;;4.40;;
75535;SDS011;64119;52.070;20.804;2023-12-20T08:39:36;8.50;;;4.30;;
75535;SDS011;64119;52.070;20.804;2023-12-20T08:42:04;7.50;;;4.30;;
75535;SDS011;64119;52.070;20.804;2023-12-20T08:44:32;8.10;;;4.30;;
75535;SDS011;64119;52.070;20.804;2023-12-20T08:47:00;6.70;;;3.40;;
75535;SDS011;64119;52.070;20.804;2023-12-20T08:49:27;9.60;;;4.70;;
75535;SDS011;64119;52.070;20.804;2023-12-20T08:51:55;7.90;;;4.20;;
75535;SDS011;64119;52.070;20.804;2023-12-20T08:54:23;6.60;;;3.90;;
75535;SDS011;64119;52.070;20.804;2023-12-20T08:56:52;9.30;;;4.40;;
75535;SDS011;64119;52.070;20.804;2023-12-20T08:59:19;9.00;;;4.60;;
75535;SDS011;64119;52.070;20.804;2023-12-20T09:01:47;8.20;;;5.00;;
75535;SDS011;64119;52.070;20.804;2023-12-20T09:04:16;9.10;;;5.20;;
75535;SDS011;64119;52.070;20.804;2023-12-20T09:06:44;9.20;;;5.10;;
75535;SDS011;64119;52.070;20.804;2023-12-20T09:09:12;7.90;;;4.00;;
75535;SDS011;64119;52.070;20.804;2023-12-20T09:11:42;7.50;;;4.20;;
75535;SDS011;64119;52.070;20.804;2023-12-20T09:14:09;8.00;;;3.90;;
75535;SDS011;64119;52.070;20.804;2023-12-20T09:16:37;6.90;;;3.90;;
75535;SDS011;64119;52.070;20.804;2023-12-20T09:19:05;6.50;;;3.60;;
75535;SDS011;64119;52.070;20.804;2023-12-20T09:21:33;7.70;;;4.20;;
75535;SDS011;64119;52.070;20.804;2023-12-20T09:24:01;8.40;;;4.20;;
75535;SDS011;64119;52.070;20.804;2023-12-20T09:26:28;6.90;;;3.60;;
75535;SDS011;64119;52.070;20.804;2023-12-20T09:28:56;6.20;;;3.70;;
75535;SDS011;64119;52.070;20.804;2023-12-20T09:31:24;5.60;;;3.60;;
75535;SDS011;64119;52.070;20.804;2023-12-20T09:33:52;7.60;;;3.40;;
75535;SDS011;64119;52.070;20.804;2023-12-20T09:36:20;6.90;;;3.60;;
75535;SDS011;64119;52.070;20.804;2023-12-20T09:38:48;6.80;;;3.70;;
75535;SDS011;64119;52.070;20.804;2023-12-20T09:41:16;5.60;;;3.10;;
75535;SDS011;64119;52.070;20.804;2023-12-20T09:43:44;5.40;;;3.10;;
75535;SDS011;64119;52.070;20.804;2023-12-20T09:46:12;6.10;;;3.20;;
75535;SDS011;64119;52.070;20.804;2023-12-20T09:48:44;7.10;;;3.50;;
75535;SDS011;64119;52.070;20.804;2023-12-20T09:51:12;6.50;;;3.10;;
75535;SDS011;64119;52.070;20.804;2023-12-20T09:53:40;5.20;;;3.20;;
75535;SDS011;64119;52.070;20.804;2023-12-20T09:56:09;5.20;;;3.40;;
75535;SDS011;64119;52.070;20.804;2023-12-20T09:58:37;5.90;;;3.20;;
75535;SDS011;64119;52.070;20.804;2023-12-20T10:01:07;5.30;;;2.60;;
75535;SDS011;64119;52.070;20.804;2023-12-20T10:03:35;5.00;;;2.70;;
75535;SDS011;64119;52.070;20.804;2023-12-20T10:06:08;5.60;;;2.90;;
75535;SDS011;64119;52.070;20.804;2023-12-20T10:08:38;5.60;;;3.40;;
75535;SDS011;64119;52.070;20.804;2023-12-20T10:11:06;5.60;;;2.80;;
75535;SDS011;64119;52.070;20.804;2023-12-20T10:13:34;5.20;;;2.70;;
75535;SDS011;64119;52.070;20.804;2023-12-20T10:16:08;5.70;;;2.50;;
75535;SDS011;64119;52.070;20.804;2023-12-20T10:18:36;4.90;;;2.50;;
75535;SDS011;64119;52.070;20.804;2023-12-20T10:21:06;4.90;;;2.40;;
75535;SDS011;64119;52.070;20.804;2023-12-20T10:23:38;4.50;;;2.90;;
75535;SDS011;64119;52.070;20.804;2023-12-20T10:26:07;5.10;;;2.80;;
75535;SDS011;64119;52.070;20.804;2023-12-20T10:28:35;4.50;;;2.70;;
75535;SDS011;64119;52.070;20.804;2023-12-20T10:31:03;5.30;;;2.70;;
75535;SDS011;64119;52.070;20.804;2023-12-20T10:33:31;4.60;;;2.50;;
75535;SDS011;64119;52.070;20.804;2023-12-20T10:36:00;4.10;;;2.50;;
75535;SDS011;64119;52.070;20.804;2023-12-20T10:38:28;3.70;;;2.20;;
75535;SDS011;64119;52.070;20.804;2023-12-20T10:40:58;4.00;;;2.20;;
75535;SDS011;64119;52.070;20.804;2023-12-20T10:43:28;4.60;;;2.70;;
75535;SDS011;64119;52.070;20.804;2023-12-20T10:45:58;4.50;;;2.80;;
75535;SDS011;64119;52.070;20.804;2023-12-20T10:48:27;4.40;;;2.60;;
75535;SDS011;64119;52.070;20.804;2023-12-20T10:50:58;5.40;;;2.80;;
75535;SDS011;64119;52.070;20.804;2023-12-20T10:53:26;6.30;;;2.90;;
75535;SDS011;64119;52.070;20.804;2023-12-20T10:55:55;5.00;;;2.40;;
75535;SDS011;64119;52.070;20.804;2023-12-20T10:58:26;3.80;;;2.30;;
75535;SDS011;64119;52.070;20.804;2023-12-20T11:01:00;4.50;;;2.40;;
75535;SDS011;64119;52.070;20.804;2023-12-20T11:03:32;4.60;;;2.50;;
75535;SDS011;64119;52.070;20.804;2023-12-20T11:06:06;5.60;;;2.60;;
75535;SDS011;64119;52.070;20.804;2023-12-20T11:14:39;3.70;;;1.90;;
75535;SDS011;64119;52.070;20.804;2023-12-20T11:17:13;4.90;;;2.30;;
75535;SDS011;64119;52.070;20.804;2023-12-20T11:22:20;6.00;;;2.90;;
75535;SDS011;64119;52.070;20.804;2023-12-20T11:24:49;5.60;;;3.10;;
75535;SDS011;64119;52.070;20.804;2023-12-20T11:27:21;5.40;;;3.00;;
75535;SDS011;64119;52.070;20.804;2023-12-20T11:29:53;6.40;;;3.20;;
75535;SDS011;64119;52.070;20.804;2023-12-20T11:35:00;5.10;;;2.60;;
75535;SDS011;64119;52.070;20.804;2023-12-20T11:37:30;6.10;;;2.90;;
75535;SDS011;64119;52.070;20.804;2023-12-20T11:40:03;5.60;;;2.80;;
75535;SDS011;64119;52.070;20.804;2023-12-20T11:42:38;3.90;;;2.50;;
75535;SDS011;64119;52.070;20.804;2023-12-20T11:45:14;4.70;;;3.00;;
75535;SDS011;64119;52.070;20.804;2023-12-20T11:47:45;3.50;;;2.20;;
75535;SDS011;64119;52.070;20.804;2023-12-20T11:50:15;3.80;;;2.30;;
75535;SDS011;64119;52.070;20.804;2023-12-20T11:52:44;4.10;;;2.50;;
75535;SDS011;64119;52.070;20.804;2023-12-20T11:55:12;5.10;;;2.50;;
75535;SDS011;64119;52.070;20.804;2023-12-20T11:57:40;3.90;;;2.40;;
75535;SDS011;64119;52.070;20.804;2023-12-20T12:00:08;4.90;;;2.50;;
75535;SDS011;64119;52.070;20.804;2023-12-20T12:02:39;3.60;;;2.40;;
75535;SDS011;64119;52.070;20.804;2023-12-20T12:05:07;4.10;;;2.60;;
75535;SDS011;64119;52.070;20.804;2023-12-20T12:07:35;4.70;;;2.20;;
75535;SDS011;64119;52.070;20.804;2023-12-20T12:10:03;4.30;;;2.50;;
75535;SDS011;64119;52.070;20.804;2023-12-20T12:12:32;3.80;;;2.20;;
75535;SDS011;64119;52.070;20.804;2023-12-20T12:15:00;3.70;;;2.20;;
75535;SDS011;64119;52.070;20.804;2023-12-20T12:17:28;4.80;;;2.70;;
75535;SDS011;64119;52.070;20.804;2023-12-20T12:20:05;3.30;;;2.10;;
75535;SDS011;64119;52.070;20.804;2023-12-20T12:22:34;2.70;;;1.60;;
75535;SDS011;64119;52.070;20.804;2023-12-20T12:25:09;3.60;;;1.90;;
75535;SDS011;64119;52.070;20.804;2023-12-20T12:27:40;3.00;;;2.10;;
75535;SDS011;64119;52.070;20.804;2023-12-20T12:30:09;4.50;;;1.90;;
75535;SDS011;64119;52.070;20.804;2023-12-20T12:32:38;5.40;;;2.00;;
75535;SDS011;64119;52.070;20.804;2023-12-20T12:35:07;4.20;;;2.40;;
75535;SDS011;64119;52.070;20.804;2023-12-20T12:37:37;3.80;;;2.00;;
75535;SDS011;64119;52.070;20.804;2023-12-20T12:40:16;4.10;;;2.20;;
75535;SDS011;64119;52.070;20.804;2023-12-20T12:42:45;3.40;;;2.00;;
75535;SDS011;64119;52.070;20.804;2023-12-20T12:45:13;5.60;;;3.00;;
75535;SDS011;64119;52.070;20.804;2023-12-20T12:47:41;5.00;;;2.40;;
75535;SDS011;64119;52.070;20.804;2023-12-20T12:50:09;3.70;;;2.40;;
75535;SDS011;64119;52.070;20.804;2023-12-20T12:52:37;4.20;;;2.50;;
75535;SDS011;64119;52.070;20.804;2023-12-20T12:55:05;5.60;;;2.30;;
75535;SDS011;64119;52.070;20.804;2023-12-20T12:57:33;4.90;;;2.50;;
75535;SDS011;64119;52.070;20.804;2023-12-20T13:00:01;5.70;;;2.50;;
75535;SDS011;64119;52.070;20.804;2023-12-20T13:02:30;4.30;;;2.60;;
75535;SDS011;64119;52.070;20.804;2023-12-20T13:04:58;3.60;;;2.00;;
75535;SDS011;64119;52.070;20.804;2023-12-20T13:07:28;6.00;;;2.70;;
75535;SDS011;64119;52.070;20.804;2023-12-20T13:09:56;5.00;;;2.40;;
75535;SDS011;64119;52.070;20.804;2023-12-20T13:12:24;5.00;;;2.80;;
75535;SDS011;64119;52.070;20.804;2023-12-20T13:14:52;4.60;;;2.70;;
75535;SDS011;64119;52.070;20.804;2023-12-20T13:17:21;5.50;;;3.10;;
75535;SDS011;64119;52.070;20.804;2023-12-20T13:19:49;6.80;;;2.90;;
75535;SDS011;64119;52.070;20.804;2023-12-20T13:22:17;6.00;;;2.80;;
75535;SDS011;64119;52.070;20.804;2023-12-20T13:24:46;4.80;;;2.80;;
75535;SDS011;64119;52.070;20.804;2023-12-20T13:27:14;5.70;;;3.00;;
75535;SDS011;64119;52.070;20.804;2023-12-20T13:29:42;4.80;;;3.00;;
75535;SDS011;64119;52.070;20.804;2023-12-20T13:32:10;5.60;;;3.20;;
75535;SDS011;64119;52.070;20.804;2023-12-20T13:34:38;6.20;;;3.30;;
75535;SDS011;64119;52.070;20.804;2023-12-20T13:37:06;6.00;;;3.40;;
75535;SDS011;64119;52.070;20.804;2023-12-20T13:39:34;5.00;;;3.00;;
75535;SDS011;64119;52.070;20.804;2023-12-20T13:42:02;4.80;;;2.90;;
75535;SDS011;64119;52.070;20.804;2023-12-20T13:44:31;5.80;;;3.30;;
75535;SDS011;64119;52.070;20.804;2023-12-20T13:46:59;5.50;;;3.40;;
75535;SDS011;64119;52.070;20.804;2023-12-20T13:49:27;5.90;;;3.40;;
75535;SDS011;64119;52.070;20.804;2023-12-20T13:51:55;6.50;;;3.60;;
75535;SDS011;64119;52.070;20.804;2023-12-20T13:54:24;6.00;;;3.60;;
75535;SDS011;64119;52.070;20.804;2023-12-20T13:56:52;6.00;;;3.20;;
75535;SDS011;64119;52.070;20.804;2023-12-20T13:59:38;8.60;;;3.60;;
75535;SDS011;64119;52.070;20.804;2023-12-20T14:02:06;5.90;;;3.80;;
75535;SDS011;64119;52.070;20.804;2023-12-20T14:04:34;6.60;;;3.90;;
75535;SDS011;64119;52.070;20.804;2023-12-20T14:09:40;8.30;;;3.30;;
75535;SDS011;64119;52.070;20.804;2023-12-20T14:12:14;5.00;;;2.70;;
75535;SDS011;64119;52.070;20.804;2023-12-20T14:14:42;5.10;;;2.60;;
75535;SDS011;64119;52.070;20.804;2023-12-20T14:17:12;5.10;;;2.90;;
75535;SDS011;64119;52.070;20.804;2023-12-20T14:19:40;5.20;;;2.60;;
75535;SDS011;64119;52.070;20.804;2023-12-20T14:22:08;4.70;;;2.90;;
75535;SDS011;64119;52.070;20.804;2023-12-20T14:24:36;6.10;;;3.20;;
75535;SDS011;64119;52.070;20.804;2023-12-20T14:27:04;5.40;;;3.10;;
75535;SDS011;64119;52.070;20.804;2023-12-20T14:29:32;5.20;;;3.10;;
75535;SDS011;64119;52.070;20.804;2023-12-20T14:31:59;6.80;;;3.50;;
75535;SDS011;64119;52.070;20.804;2023-12-20T14:34:30;6.00;;;3.50;;
75535;SDS011;64119;52.070;20.804;2023-12-20T14:36:58;6.10;;;2.80;;
75535;SDS011;64119;52.070;20.804;2023-12-20T14:39:26;5.80;;;3.50;;
75535;SDS011;64119;52.070;20.804;2023-12-20T14:41:53;6.80;;;3.10;;
75535;SDS011;64119;52.070;20.804;2023-12-20T14:44:21;10.00;;;3.90;;
75535;SDS011;64119;52.070;20.804;2023-12-20T14:46:50;7.50;;;3.70;;
75535;SDS011;64119;52.070;20.804;2023-12-20T14:49:18;6.40;;;3.40;;
75535;SDS011;64119;52.070;20.804;2023-12-20T14:51:46;8.80;;;3.60;;
75535;SDS011;64119;52.070;20.804;2023-12-20T14:54:15;6.90;;;3.70;;
75535;SDS011;64119;52.070;20.804;2023-12-20T14:56:43;7.80;;;3.80;;
75535;SDS011;64119;52.070;20.804;2023-12-20T14:59:11;6.00;;;3.40;;